Time;durP1;ratioP1;P1;durP2;ratioP2;P2;SDS_P1;SDS_P2;PMS_P1;PMS_P2;Temp;Humidity;BMP_temperature;BMP_pressure;BME280_temperature;BME280_humidity;BME280_pressure;Samples;Min_cycle;Max_cycle;Signal;HPM_P1;HPM_P2
2022/02/28 00:01:00;;;;;;;;;;;-0.20;90.60;;;;;;5105006;28;20205;-68
2022/02/28 00:03:26;;;;;;;;;;;-0.30;90.70;;;;;;5104769;28;19916;-68
2022/02/28 00:05:52;;;;;;;;;;;-0.20;90.70;;;;;;5105167;28;19918;-68
2022/02/28 00:08:17;;;;;;;;;;;-0.30;90.70;;;;;;5104965;28;19912;-69
2022/02/28 00:10:43;;;;;;;;;;;-0.30;90.60;;;;;;5104762;28;19980;-69
2022/02/28 00:13:09;;;;;;;;;;;-0.30;90.60;;;;;;5105050;28;20211;-69
2022/02/28 00:15:35;;;;;;;;;;;-0.30;90.50;;;;;;5104879;28;19920;-69
2022/02/28 00:18:01;;;;;;;;;;;-0.30;90.40;;;;;;5104787;28;19990;-69
2022/02/28 00:20:26;;;;;;;;;;;-0.30;90.20;;;;;;5104599;28;19908;-69
2022/02/28 00:22:52;;;;;;;;;;;-0.30;90.20;;;;;;5104748;28;20156;-69
2022/02/28 00:25:18;;;;;;;;;;;-0.30;90.20;;;;;;5104723;28;19908;-69
2022/02/28 00:27:44;;;;;;;;;;;-0.30;90.30;;;;;;5103200;28;19923;-69
2022/02/28 00:30:10;;;;;;;;;;;-0.40;90.50;;;;;;5104678;28;19911;-69
2022/02/28 00:32:36;;;;;;;;;;;-0.40;90.70;;;;;;5104267;28;19916;-69
2022/02/28 00:35:02;;;;;;;;;;;-0.40;90.80;;;;;;5083453;28;19908;-69
2022/02/28 00:37:27;;;;;;;;;;;-0.30;90.80;;;;;;5084352;28;19908;-69
2022/02/28 00:39:53;;;;;;;;;;;-0.40;91.00;;;;;;5084204;28;20199;-69
2022/02/28 00:42:19;;;;;;;;;;;-0.50;91.10;;;;;;5083951;28;19916;-70
2022/02/28 00:44:45;;;;;;;;;;;-0.50;91.20;;;;;;5084125;28;19939;-69
2022/02/28 00:47:10;;;;;;;;;;;-0.50;91.10;;;;;;5083876;28;19924;-69
2022/02/28 00:49:36;;;;;;;;;;;-0.50;91.20;;;;;;5083784;28;19961;-69
2022/02/28 00:52:02;;;;;;;;;;;-0.50;91.10;;;;;;5083770;28;19939;-69
2022/02/28 00:54:28;;;;;;;;;;;-0.40;91.00;;;;;;5066009;28;19987;-69
2022/02/28 00:56:55;;;;;;;;;;;-0.40;91.00;;;;;;5082703;28;19958;-70
2022/02/28 00:59:20;;;;;;;;;;;-0.50;91.10;;;;;;5082331;28;19947;-69
2022/02/28 01:01:46;;;;;;;;;;;-0.50;91.10;;;;;;5081989;28;20004;-68
2022/02/28 01:04:12;;;;;;;;;;;-0.60;91.30;;;;;;5083462;28;19999;-68
2022/02/28 01:06:37;;;;;;;;;;;-0.60;91.20;;;;;;5083532;28;19909;-69
2022/02/28 01:09:03;;;;;;;;;;;-0.60;91.20;;;;;;5083166;28;19965;-69
2022/02/28 01:11:29;;;;;;;;;;;-0.50;91.20;;;;;;5083168;28;19947;-69
2022/02/28 01:13:55;;;;;;;;;;;-0.60;91.20;;;;;;5083287;28;19978;-69
2022/02/28 01:16:21;;;;;;;;;;;-0.50;91.30;;;;;;5083665;28;19920;-69
2022/02/28 01:18:46;;;;;;;;;;;-0.50;91.30;;;;;;5081674;28;19979;-68
2022/02/28 01:21:12;;;;;;;;;;;-0.60;91.30;;;;;;5082958;28;19908;-69
2022/02/28 01:23:38;;;;;;;;;;;-0.60;91.30;;;;;;5083269;28;20000;-68
2022/02/28 01:26:03;;;;;;;;;;;-0.60;91.40;;;;;;5084049;28;19908;-70
2022/02/28 01:28:29;;;;;;;;;;;-0.70;91.50;;;;;;5084226;28;20121;-69
2022/02/28 01:30:55;;;;;;;;;;;-0.70;91.50;;;;;;5084089;28;19916;-69
2022/02/28 01:33:20;;;;;;;;;;;-0.70;91.60;;;;;;5084135;28;19920;-69
2022/02/28 01:35:46;;;;;;;;;;;-0.80;91.70;;;;;;5084371;28;19975;-68
2022/02/28 01:38:12;;;;;;;;;;;-0.80;91.90;;;;;;5084179;28;19909;-69
2022/02/28 01:40:37;;;;;;;;;;;-0.80;91.90;;;;;;5083951;28;19951;-68
2022/02/28 01:43:03;;;;;;;;;;;-0.90;92.00;;;;;;5084212;28;19908;-69
2022/02/28 01:45:29;;;;;;;;;;;-1.00;92.20;;;;;;5084679;28;20481;-69
2022/02/28 01:47:55;;;;;;;;;;;-1.00;92.30;;;;;;5083955;28;20417;-69
2022/02/28 01:50:21;;;;;;;;;;;-1.00;92.40;;;;;;5066143;28;19916;-69
2022/02/28 01:52:48;;;;;;;;;;;-1.00;92.30;;;;;;5083690;28;20261;-69
2022/02/28 01:55:15;;;;;;;;;;;-1.00;92.50;;;;;;5082704;28;20199;-69
2022/02/28 01:57:40;;;;;;;;;;;-1.00;92.70;;;;;;5083766;28;19916;-69
2022/02/28 02:00:08;;;;;;;;;;;-1.00;92.40;;;;;;5083730;28;19939;-69
2022/02/28 02:02:34;;;;;;;;;;;-1.00;92.40;;;;;;5083514;28;20203;-69
2022/02/28 02:04:59;;;;;;;;;;;-1.10;92.40;;;;;;5065694;28;19979;-69
2022/02/28 02:07:25;;;;;;;;;;;-1.10;92.60;;;;;;5083592;28;20139;-70
2022/02/28 02:09:51;;;;;;;;;;;-1.20;92.70;;;;;;5083653;28;19908;-69
2022/02/28 02:12:17;;;;;;;;;;;-1.10;92.70;;;;;;5081389;28;19908;-69
2022/02/28 02:14:42;;;;;;;;;;;-1.10;92.60;;;;;;5066040;28;19908;-69
2022/02/28 02:17:08;;;;;;;;;;;-1.10;92.60;;;;;;5065773;28;19975;-69
2022/02/28 02:19:35;;;;;;;;;;;-1.00;92.80;;;;;;5082098;28;19915;-70
2022/02/28 02:22:01;;;;;;;;;;;-1.10;92.50;;;;;;5065345;28;19916;-70
2022/02/28 02:24:27;;;;;;;;;;;-1.00;92.50;;;;;;5083306;28;19975;-69
2022/02/28 02:26:52;;;;;;;;;;;-1.00;92.40;;;;;;5081914;28;19915;-70
2022/02/28 02:29:18;;;;;;;;;;;-1.10;92.60;;;;;;5083206;28;19954;-69
2022/02/28 02:31:44;;;;;;;;;;;-1.10;92.60;;;;;;5082831;28;20141;-69
2022/02/28 02:34:09;;;;;;;;;;;-1.10;92.70;;;;;;5082805;28;19909;-69
2022/02/28 02:36:35;;;;;;;;;;;-1.10;92.80;;;;;;5083055;28;20018;-71
2022/02/28 02:39:01;;;;;;;;;;;-1.10;92.70;;;;;;5100350;22;19920;-65
2022/02/28 02:41:27;;;;;;;;;;;-1.20;92.80;;;;;;5078316;28;19908;-64
2022/02/28 02:43:53;;;;;;;;;;;-1.20;92.80;;;;;;5081866;28;20268;-66
2022/02/28 02:46:18;;;;;;;;;;;-1.20;93.00;;;;;;5081835;28;19908;-67
2022/02/28 02:48:44;;;;;;;;;;;-1.30;92.90;;;;;;5081570;28;20018;-66
2022/02/28 02:51:12;;;;;;;;;;;-1.30;93.00;;;;;;5081378;28;20090;-66
2022/02/28 02:53:37;;;;;;;;;;;-1.30;93.00;;;;;;5061433;28;19936;-66
2022/02/28 02:56:03;;;;;;;;;;;-1.30;93.10;;;;;;5061644;28;19909;-66
2022/02/28 02:58:29;;;;;;;;;;;-1.30;93.10;;;;;;5072333;28;19940;-66
2022/02/28 03:00:55;;;;;;;;;;;-1.40;93.40;;;;;;5081350;28;19931;-67
2022/02/28 03:03:22;;;;;;;;;;;-1.40;93.10;;;;;;5081403;28;19916;-65
2022/02/28 03:05:48;;;;;;;;;;;-1.30;93.00;;;;;;5080418;28;19916;-65
2022/02/28 03:08:14;;;;;;;;;;;-1.30;92.90;;;;;;5081220;28;19913;-65
2022/02/28 03:10:40;;;;;;;;;;;-1.20;92.90;;;;;;5081205;28;20092;-65
2022/02/28 03:13:05;;;;;;;;;;;-1.20;92.90;;;;;;5081399;28;20267;-65
2022/02/28 03:15:31;;;;;;;;;;;-1.20;92.80;;;;;;5081668;28;19909;-65
2022/02/28 03:17:57;;;;;;;;;;;-1.30;93.00;;;;;;5081418;28;19916;-65
2022/02/28 03:20:22;;;;;;;;;;;-1.30;92.90;;;;;;5081489;28;19916;-65
2022/02/28 03:22:49;;;;;;;;;;;-1.30;92.90;;;;;;5080862;28;19931;-64
2022/02/28 03:25:15;;;;;;;;;;;-1.30;92.90;;;;;;5081465;28;19913;-65
2022/02/28 03:27:40;;;;;;;;;;;-1.40;93.10;;;;;;5081180;28;19951;-65
2022/02/28 03:30:06;;;;;;;;;;;-1.40;93.10;;;;;;5081451;28;19909;-65
2022/02/28 03:32:32;;;;;;;;;;;-1.40;93.00;;;;;;5081091;28;19916;-65
2022/02/28 03:34:58;;;;;;;;;;;-1.40;93.10;;;;;;5081263;28;19909;-65
2022/02/28 03:37:23;;;;;;;;;;;-1.40;93.10;;;;;;5080771;28;20259;-65
2022/02/28 03:39:49;;;;;;;;;;;-1.40;93.10;;;;;;5081292;28;19909;-65
2022/02/28 03:42:15;;;;;;;;;;;-1.40;93.10;;;;;;5080906;28;19936;-65
2022/02/28 03:44:40;;;;;;;;;;;-1.40;93.10;;;;;;5081164;28;19908;-65
2022/02/28 03:47:06;;;;;;;;;;;-1.40;93.20;;;;;;5076557;28;19909;-66
2022/02/28 03:49:32;;;;;;;;;;;-1.40;93.20;;;;;;5081127;28;20187;-65
2022/02/28 03:51:58;;;;;;;;;;;-1.50;93.20;;;;;;5080893;28;19920;-66
2022/02/28 03:54:23;;;;;;;;;;;-1.50;93.30;;;;;;5080889;28;20188;-66
2022/02/28 03:56:49;;;;;;;;;;;-1.60;93.50;;;;;;5081054;28;19908;-66
2022/02/28 03:59:15;;;;;;;;;;;-1.60;93.70;;;;;;5081110;28;19977;-65
2022/02/28 04:01:41;;;;;;;;;;;-1.60;93.80;;;;;;5080822;28;19980;-66
2022/02/28 04:04:08;;;;;;;;;;;-1.60;93.80;;;;;;5081028;28;20117;-66
2022/02/28 04:06:33;;;;;;;;;;;-1.70;94.00;;;;;;5080893;28;19917;-65
2022/02/28 04:08:59;;;;;;;;;;;-1.70;94.00;;;;;;5080577;28;19959;-65
2022/02/28 04:11:25;;;;;;;;;;;-1.80;94.00;;;;;;5080661;28;19920;-65
2022/02/28 04:13:51;;;;;;;;;;;-1.80;94.00;;;;;;5080898;28;19974;-66
2022/02/28 04:16:17;;;;;;;;;;;-1.80;94.00;;;;;;5081423;28;20227;-65
2022/02/28 04:18:43;;;;;;;;;;;-1.80;94.00;;;;;;5080740;28;19924;-66
2022/02/28 04:21:08;;;;;;;;;;;-1.90;94.10;;;;;;5080521;28;19908;-66
2022/02/28 04:23:34;;;;;;;;;;;-1.90;94.20;;;;;;5080526;28;20226;-66
2022/02/28 04:26:00;;;;;;;;;;;-1.90;94.00;;;;;;5080746;28;19962;-65
2022/02/28 04:28:26;;;;;;;;;;;-1.80;94.10;;;;;;5080674;28;20150;-66
2022/02/28 04:30:52;;;;;;;;;;;-1.80;94.10;;;;;;5080504;28;19940;-65
2022/02/28 04:33:17;;;;;;;;;;;-1.80;94.10;;;;;;5080816;28;19916;-65
2022/02/28 04:35:43;;;;;;;;;;;-1.80;94.20;;;;;;5081859;28;19908;-65
2022/02/28 04:38:09;;;;;;;;;;;-1.80;94.20;;;;;;5084207;28;19919;-65
2022/02/28 04:40:35;;;;;;;;;;;-1.80;94.20;;;;;;5083959;28;19944;-65
2022/02/28 04:43:00;;;;;;;;;;;-1.80;94.20;;;;;;5084222;28;19916;-64
2022/02/28 04:45:26;;;;;;;;;;;-1.80;94.20;;;;;;5084090;28;19915;-65
2022/02/28 04:47:52;;;;;;;;;;;-1.80;94.20;;;;;;5084058;28;20235;-65
2022/02/28 04:50:18;;;;;;;;;;;-1.80;94.20;;;;;;5083986;28;19916;-65
2022/02/28 04:52:43;;;;;;;;;;;-1.80;94.30;;;;;;5083604;28;19909;-66
2022/02/28 04:55:09;;;;;;;;;;;-1.80;94.40;;;;;;5083855;28;19908;-65
2022/02/28 04:57:38;;;;;;;;;;;-1.90;94.80;;;;;;5083873;28;19908;-66
2022/02/28 05:00:05;;;;;;;;;;;-1.90;94.70;;;;;;5083955;28;19908;-66
2022/02/28 05:02:30;;;;;;;;;;;-1.90;94.50;;;;;;5083751;28;19908;-65
2022/02/28 05:04:57;;;;;;;;;;;-1.90;94.50;;;;;;5083894;28;19951;-65
2022/02/28 05:07:22;;;;;;;;;;;-1.80;94.40;;;;;;5083387;28;19920;-65
2022/02/28 05:09:48;;;;;;;;;;;-1.90;94.40;;;;;;5083796;28;19987;-66
2022/02/28 05:12:14;;;;;;;;;;;-1.80;94.40;;;;;;5082999;28;19960;-67
2022/02/28 05:14:39;;;;;;;;;;;-1.80;94.40;;;;;;5084522;28;19920;-67
2022/02/28 05:17:05;;;;;;;;;;;-1.90;94.40;;;;;;5103369;28;19953;-65
2022/02/28 05:19:31;;;;;;;;;;;-1.90;94.60;;;;;;5103521;28;20163;-66
2022/02/28 05:21:57;;;;;;;;;;;-1.90;94.50;;;;;;5103355;28;19981;-65
2022/02/28 05:24:22;;;;;;;;;;;-1.90;94.60;;;;;;5096379;28;19924;-66
2022/02/28 05:26:48;;;;;;;;;;;-2.00;94.60;;;;;;5076976;28;19948;-67
2022/02/28 05:29:15;;;;;;;;;;;-2.00;94.70;;;;;;5063166;28;19913;-66
2022/02/28 05:31:40;;;;;;;;;;;-2.00;94.90;;;;;;5062775;28;19912;-66
2022/02/28 05:34:06;;;;;;;;;;;-2.00;94.90;;;;;;5070227;28;19951;-66
2022/02/28 05:36:32;;;;;;;;;;;-2.10;94.90;;;;;;5081384;28;20171;-66
2022/02/28 05:38:58;;;;;;;;;;;-2.10;94.90;;;;;;5079256;28;20280;-66
2022/02/28 05:41:23;;;;;;;;;;;-2.00;95.10;;;;;;5081771;28;19923;-66
2022/02/28 05:43:49;;;;;;;;;;;-2.10;95.10;;;;;;5082771;28;19939;-66
2022/02/28 05:46:15;;;;;;;;;;;-2.10;95.10;;;;;;5074965;28;19959;-66
2022/02/28 05:48:42;;;;;;;;;;;-2.10;95.00;;;;;;5079064;28;20150;-67
2022/02/28 05:51:08;;;;;;;;;;;-2.10;95.00;;;;;;5078746;28;20127;-67
2022/02/28 05:53:33;;;;;;;;;;;-2.10;95.00;;;;;;5083331;28;19909;-67
2022/02/28 05:55:59;;;;;;;;;;;-2.10;95.00;;;;;;5083085;28;19908;-67
2022/02/28 05:58:25;;;;;;;;;;;-2.10;95.10;;;;;;5083420;28;19909;-67
2022/02/28 06:00:51;;;;;;;;;;;-2.10;95.10;;;;;;5065287;28;19908;-67
2022/02/28 06:03:17;;;;;;;;;;;-2.10;95.00;;;;;;5083599;28;19940;-67
2022/02/28 06:05:43;;;;;;;;;;;-2.10;95.00;;;;;;5045700;28;19917;-67
2022/02/28 06:08:08;;;;;;;;;;;-2.10;95.00;;;;;;5078290;28;19917;-67
2022/02/28 06:10:37;;;;;;;;;;;-2.10;94.90;;;;;;5063472;28;19909;-66
2022/02/28 06:13:03;;;;;;;;;;;-2.10;95.10;;;;;;5063362;28;19948;-67
2022/02/28 06:15:29;;;;;;;;;;;-2.00;95.00;;;;;;5063854;28;20019;-67
2022/02/28 06:17:57;;;;;;;;;;;-2.00;95.10;;;;;;5062926;28;19916;-67
2022/02/28 06:20:23;;;;;;;;;;;-2.00;95.20;;;;;;5061529;28;19913;-66
2022/02/28 06:22:49;;;;;;;;;;;-2.10;95.40;;;;;;5062337;28;19916;-66
2022/02/28 06:25:15;;;;;;;;;;;-2.00;95.50;;;;;;5062760;28;19915;-67
2022/02/28 06:27:41;;;;;;;;;;;-2.00;95.60;;;;;;5062683;28;19948;-67
2022/02/28 06:30:07;;;;;;;;;;;-2.00;95.60;;;;;;5062839;28;19917;-67
2022/02/28 06:32:34;;;;;;;;;;;-1.90;95.60;;;;;;5077808;28;19915;-66
2022/02/28 06:35:00;;;;;;;;;;;-1.90;95.70;;;;;;5067730;28;20207;-66
2022/02/28 06:37:26;;;;;;;;;;;-1.80;95.60;;;;;;5081463;28;19916;-65
2022/02/28 06:39:52;;;;;;;;;;;-1.80;95.40;;;;;;5081730;28;19920;-67
2022/02/28 06:42:17;;;;;;;;;;;-1.70;95.30;;;;;;5082042;28;19923;-66
2022/02/28 06:44:43;;;;;;;;;;;-1.70;95.20;;;;;;5081608;28;19914;-67
2022/02/28 06:47:09;;;;;;;;;;;-1.60;95.00;;;;;;5081949;28;19915;-66
2022/02/28 06:49:34;;;;;;;;;;;-1.70;95.00;;;;;;5081399;28;20206;-66
2022/02/28 06:52:00;;;;;;;;;;;-1.60;94.80;;;;;;5079955;28;19916;-66
2022/02/28 06:54:26;;;;;;;;;;;-1.50;94.80;;;;;;5081260;28;20160;-67
2022/02/28 06:56:51;;;;;;;;;;;-1.40;94.70;;;;;;5081582;28;19908;-66
2022/02/28 06:59:17;;;;;;;;;;;-1.40;94.50;;;;;;5080098;28;20211;-67
2022/02/28 07:01:43;;;;;;;;;;;-1.40;94.40;;;;;;5080230;28;19928;-67
2022/02/28 07:04:08;;;;;;;;;;;-1.30;94.40;;;;;;5081627;28;19954;-66
2022/02/28 07:06:34;;;;;;;;;;;-1.30;94.30;;;;;;5081559;28;20111;-66
2022/02/28 07:09:00;;;;;;;;;;;-1.30;94.20;;;;;;5081059;28;19916;-66
2022/02/28 07:11:26;;;;;;;;;;;-1.30;94.20;;;;;;5080031;28;19908;-66
2022/02/28 07:13:52;;;;;;;;;;;-1.20;94.20;;;;;;5063677;28;19931;-66
2022/02/28 07:16:18;;;;;;;;;;;-1.20;94.30;;;;;;5081415;28;19916;-65
2022/02/28 07:18:43;;;;;;;;;;;-1.10;94.10;;;;;;5080910;28;20168;-65
2022/02/28 07:21:09;;;;;;;;;;;-1.00;93.90;;;;;;5081188;28;19909;-65
2022/02/28 07:23:35;;;;;;;;;;;-1.00;93.80;;;;;;5081151;28;19909;-65
2022/02/28 07:26:01;;;;;;;;;;;-1.00;93.90;;;;;;5081390;28;20182;-65
2022/02/28 07:28:26;;;;;;;;;;;-0.90;93.80;;;;;;5081094;28;19920;-65
2022/02/28 07:30:52;;;;;;;;;;;-0.90;93.70;;;;;;5080968;28;20026;-65
2022/02/28 07:33:18;;;;;;;;;;;-0.80;93.60;;;;;;5081196;28;19909;-65
2022/02/28 07:35:44;;;;;;;;;;;-0.70;93.50;;;;;;5081471;28;20128;-65
2022/02/28 07:38:10;;;;;;;;;;;-0.60;93.30;;;;;;5080844;28;19912;-66
2022/02/28 07:40:35;;;;;;;;;;;-0.50;93.30;;;;;;5080943;28;19908;-65
2022/02/28 07:43:02;;;;;;;;;;;-0.40;93.10;;;;;;5081297;28;19908;-66
2022/02/28 07:45:28;;;;;;;;;;;-0.40;93.00;;;;;;5079919;28;19959;-66
2022/02/28 07:47:53;;;;;;;;;;;-0.30;92.80;;;;;;5081340;28;19987;-66
2022/02/28 07:50:20;;;;;;;;;;;-0.20;92.70;;;;;;5081183;28;19946;-65
2022/02/28 07:52:46;;;;;;;;;;;-0.10;92.70;;;;;;5080594;28;19934;-66
2022/02/28 07:55:12;;;;;;;;;;;-0.10;92.30;;;;;;5080369;28;19908;-66
2022/02/28 07:57:38;;;;;;;;;;;0.00;92.30;;;;;;5079888;28;19931;-65
2022/02/28 08:00:05;;;;;;;;;;;0.10;92.00;;;;;;5081013;28;19934;-66
2022/02/28 08:02:31;;;;;;;;;;;0.20;91.70;;;;;;5080707;28;20228;-67
2022/02/28 08:04:56;;;;;;;;;;;0.30;91.30;;;;;;5080678;28;20004;-66
2022/02/28 08:07:22;;;;;;;;;;;0.30;90.80;;;;;;5073141;28;20157;-67
2022/02/28 08:09:48;;;;;;;;;;;0.40;90.60;;;;;;5077045;28;19908;-67
2022/02/28 08:12:14;;;;;;;;;;;0.50;90.20;;;;;;5084720;28;19912;-67
2022/02/28 08:14:40;;;;;;;;;;;0.50;90.40;;;;;;5084901;28;19987;-68
2022/02/28 08:17:07;;;;;;;;;;;0.60;90.40;;;;;;5084893;28;19931;-67
2022/02/28 08:19:32;;;;;;;;;;;0.80;90.00;;;;;;5083338;28;20227;-67
2022/02/28 08:21:58;;;;;;;;;;;1.00;89.10;;;;;;5084249;28;19986;-67
2022/02/28 08:24:24;;;;;;;;;;;1.00;89.10;;;;;;5084393;28;19915;-67
2022/02/28 08:26:50;;;;;;;;;;;1.00;88.80;;;;;;5084852;28;20144;-68
2022/02/28 08:29:15;;;;;;;;;;;1.10;88.70;;;;;;5084820;28;20093;-70
2022/02/28 08:31:41;;;;;;;;;;;1.10;88.70;;;;;;5083841;28;19916;-68
2022/02/28 08:34:08;;;;;;;;;;;1.20;88.30;;;;;;5084488;28;19916;-68
2022/02/28 08:36:34;;;;;;;;;;;1.30;87.60;;;;;;5083583;28;20021;-67
2022/02/28 08:39:00;;;;;;;;;;;1.40;87.40;;;;;;5084005;28;19975;-67
2022/02/28 08:41:26;;;;;;;;;;;1.50;86.00;;;;;;5066058;28;19908;-67
2022/02/28 08:43:51;;;;;;;;;;;1.60;86.20;;;;;;5084893;28;19909;-67
2022/02/28 08:46:17;;;;;;;;;;;1.80;84.10;;;;;;5084284;28;19916;-67
2022/02/28 08:48:43;;;;;;;;;;;1.90;83.50;;;;;;5084261;28;19919;-67
2022/02/28 08:51:08;;;;;;;;;;;1.90;83.70;;;;;;5083932;28;20023;-67
2022/02/28 08:53:34;;;;;;;;;;;2.00;83.90;;;;;;5083956;28;19908;-67
2022/02/28 08:56:00;;;;;;;;;;;2.00;84.20;;;;;;5084102;28;19954;-68
2022/02/28 08:58:26;;;;;;;;;;;2.20;84.50;;;;;;5084031;28;20175;-66
2022/02/28 09:00:52;;;;;;;;;;;2.30;83.70;;;;;;5082595;28;19916;-65
2022/02/28 09:03:18;;;;;;;;;;;2.40;82.90;;;;;;5097311;28;20008;-65
2022/02/28 09:05:43;;;;;;;;;;;2.50;82.30;;;;;;5099760;28;19944;-66
2022/02/28 09:08:09;;;;;;;;;;;2.50;81.90;;;;;;5083300;28;19912;-67
2022/02/28 09:10:35;;;;;;;;;;;2.50;81.80;;;;;;5083420;28;19908;-68
2022/02/28 09:13:00;;;;;;;;;;;2.60;81.60;;;;;;5084639;28;20245;-67
2022/02/28 09:15:26;;;;;;;;;;;2.70;81.20;;;;;;5084630;28;19943;-67
2022/02/28 09:17:52;;;;;;;;;;;2.90;79.60;;;;;;5084589;28;19962;-69
2022/02/28 09:20:17;;;;;;;;;;;3.10;77.70;;;;;;5084319;28;19917;-67
2022/02/28 09:22:43;;;;;;;;;;;3.10;78.10;;;;;;5084164;28;19908;-67
2022/02/28 09:25:09;;;;;;;;;;;3.10;79.00;;;;;;5084263;28;19908;-67
2022/02/28 09:27:35;;;;;;;;;;;3.10;79.20;;;;;;5083234;28;19912;-67
2022/02/28 09:30:01;;;;;;;;;;;3.10;78.90;;;;;;5083174;28;19987;-67
2022/02/28 09:32:27;;;;;;;;;;;3.20;79.90;;;;;;5083138;28;19916;-67
2022/02/28 09:34:53;;;;;;;;;;;3.30;79.60;;;;;;5084269;28;20033;-67
2022/02/28 09:37:18;;;;;;;;;;;3.30;79.70;;;;;;5066154;28;19919;-67
2022/02/28 09:39:44;;;;;;;;;;;3.40;79.00;;;;;;5083945;28;19908;-67
2022/02/28 09:42:10;;;;;;;;;;;3.50;78.80;;;;;;5083835;28;19912;-67
2022/02/28 09:44:36;;;;;;;;;;;3.50;78.40;;;;;;5083025;28;19944;-67
2022/02/28 09:47:02;;;;;;;;;;;3.60;77.20;;;;;;5082966;28;20305;-67
2022/02/28 09:49:27;;;;;;;;;;;3.70;76.70;;;;;;5049531;28;19979;-67
2022/02/28 09:51:53;;;;;;;;;;;3.90;76.00;;;;;;5083510;28;19916;-67
2022/02/28 09:54:20;;;;;;;;;;;3.90;76.90;;;;;;5083720;28;19908;-67
2022/02/28 09:56:45;;;;;;;;;;;4.10;75.00;;;;;;5083592;28;19909;-67
2022/02/28 09:59:11;;;;;;;;;;;4.30;72.90;;;;;;5084120;28;19989;-67
2022/02/28 10:01:37;;;;;;;;;;;4.30;73.40;;;;;;5083546;28;19923;-67
2022/02/28 10:04:02;;;;;;;;;;;4.50;75.10;;;;;;5083840;28;19916;-67
2022/02/28 10:06:28;;;;;;;;;;;4.70;71.90;;;;;;5083617;28;19909;-67
2022/02/28 10:09:00;;;;;;;;;;;4.80;71.20;;;;;;5083241;28;19939;-67
2022/02/28 10:11:27;;;;;;;;;;;5.00;72.30;;;;;;5082302;28;19961;-67
2022/02/28 10:13:55;;;;;;;;;;;5.30;69.70;;;;;;5082330;28;19908;-67
2022/02/28 10:16:57;;;;;;;;;;;5.40;68.40;;;;;;5083646;28;19976;-67
2022/02/28 10:19:28;;;;;;;;;;;5.70;65.60;;;;;;5076650;28;20022;-68
2022/02/28 10:21:56;;;;;;;;;;;5.90;64.40;;;;;;5082047;28;19916;-68
2022/02/28 10:24:31;;;;;;;;;;;6.20;64.40;;;;;;5083244;28;19954;-67
2022/02/28 10:26:57;;;;;;;;;;;6.30;63.40;;;;;;5083269;28;19935;-66
2022/02/28 10:29:25;;;;;;;;;;;6.60;59.00;;;;;;5065515;28;19912;-67
2022/02/28 10:31:51;;;;;;;;;;;6.60;59.50;;;;;;5083131;28;19915;-67
2022/02/28 10:34:21;;;;;;;;;;;6.80;58.70;;;;;;5082637;28;19975;-67
2022/02/28 10:36:57;;;;;;;;;;;7.00;59.30;;;;;;5082524;28;19916;-67
2022/02/28 10:39:28;;;;;;;;;;;7.20;58.20;;;;;;5082962;28;19952;-66
2022/02/28 10:41:57;;;;;;;;;;;7.30;57.20;;;;;;5082893;28;19977;-67
2022/02/28 10:44:22;;;;;;;;;;;7.50;57.20;;;;;;5082927;28;19923;-67
2022/02/28 10:46:49;;;;;;;;;;;7.50;56.10;;;;;;5081800;28;19912;-66
2022/02/28 10:49:16;;;;;;;;;;;7.70;54.20;;;;;;5083035;28;19912;-66
2022/02/28 10:51:58;;;;;;;;;;;7.90;55.60;;;;;;5082243;28;20098;-67
2022/02/28 10:54:33;;;;;;;;;;;8.10;57.90;;;;;;5082846;28;19908;-67
2022/02/28 10:56:59;;;;;;;;;;;8.30;55.10;;;;;;5082889;28;19926;-67
2022/02/28 10:59:28;;;;;;;;;;;8.60;51.80;;;;;;5083005;28;19908;-66
2022/02/28 11:01:53;;;;;;;;;;;8.90;52.30;;;;;;5081379;28;20262;-66
2022/02/28 11:04:39;;;;;;;;;;;9.30;52.40;;;;;;5081560;28;19946;-67
2022/02/28 11:07:06;;;;;;;;;;;9.70;51.30;;;;;;5082639;28;19935;-67
2022/02/28 11:09:36;;;;;;;;;;;10.00;50.40;;;;;;5082391;28;19912;-66
2022/02/28 11:12:21;;;;;;;;;;;10.00;50.40;;;;;;5082294;28;19984;-68
2022/02/28 11:14:48;;;;;;;;;;;10.00;48.00;;;;;;5082693;28;19913;-68
2022/02/28 11:17:22;;;;;;;;;;;10.50;47.20;;;;;;5081510;28;19916;-68
2022/02/28 11:19:49;;;;;;;;;;;11.10;46.30;;;;;;5082649;28;19916;-68
2022/02/28 11:22:15;;;;;;;;;;;11.80;45.50;;;;;;5082231;28;20005;-67
2022/02/28 11:24:43;;;;;;;;;;;12.60;42.80;;;;;;5082160;28;19970;-67
2022/02/28 11:27:08;;;;;;;;;;;13.90;40.20;;;;;;5082609;28;19971;-67
2022/02/28 11:29:34;;;;;;;;;;;15.20;35.20;;;;;;5082547;28;19913;-68
2022/02/28 11:32:00;;;;;;;;;;;16.60;32.60;;;;;;5081329;28;19909;-67
2022/02/28 11:34:26;;;;;;;;;;;18.00;30.60;;;;;;5082568;28;19940;-68
2022/02/28 11:37:00;;;;;;;;;;;18.80;30.00;;;;;;5081658;28;19990;-67
2022/02/28 11:39:34;;;;;;;;;;;19.80;29.60;;;;;;5082488;28;19915;-68
2022/02/28 11:42:01;;;;;;;;;;;20.90;28.40;;;;;;5082368;28;20108;-68
2022/02/28 11:44:27;;;;;;;;;;;21.60;28.30;;;;;;5082925;28;19923;-69
2022/02/28 11:47:00;;;;;;;;;;;22.40;26.80;;;;;;5086465;28;20246;-68
2022/02/28 11:49:26;;;;;;;;;;;22.90;25.50;;;;;;5086355;28;19920;-68
2022/02/28 11:51:51;;;;;;;;;;;23.50;24.50;;;;;;5085018;28;20107;-68
2022/02/28 11:54:17;;;;;;;;;;;23.70;24.70;;;;;;5086276;28;20165;-68
2022/02/28 11:56:46;;;;;;;;;;;24.10;24.70;;;;;;5085023;28;19920;-68
2022/02/28 11:59:19;;;;;;;;;;;24.30;24.70;;;;;;5086222;28;19912;-68
2022/02/28 12:01:48;;;;;;;;;;;23.80;25.00;;;;;;5086025;28;19908;-68
2022/02/28 12:04:15;;;;;;;;;;;24.60;24.20;;;;;;5086111;28;19915;-68
2022/02/28 12:07:00;;;;;;;;;;;25.40;23.20;;;;;;5086061;28;19909;-68
2022/02/28 12:09:31;;;;;;;;;;;26.30;22.60;;;;;;5085860;28;19916;-67
2022/02/28 12:12:33;;;;;;;;;;;27.30;22.90;;;;;;5085834;28;19916;-67
2022/02/28 12:15:00;;;;;;;;;;;27.20;22.00;;;;;;5043960;28;20045;-68
2022/02/28 12:17:31;;;;;;;;;;;27.70;21.30;;;;;;5077595;28;20191;-68
2022/02/28 12:20:19;;;;;;;;;;;27.70;21.70;;;;;;5084758;28;19916;-68
2022/02/28 12:23:09;;;;;;;;;;;27.60;21.80;;;;;;5085473;28;20222;-68
2022/02/28 12:25:58;;;;;;;;;;;27.70;20.80;;;;;;5085641;28;20154;-68
2022/02/28 12:28:36;;;;;;;;;;;28.00;21.40;;;;;;5085603;28;19924;-68
2022/02/28 12:31:08;;;;;;;;;;;28.50;21.30;;;;;;5085322;28;19916;-68
2022/02/28 12:33:34;;;;;;;;;;;28.60;20.90;;;;;;5085695;28;19916;-69
2022/02/28 12:35:59;;;;;;;;;;;28.60;20.60;;;;;;5085369;28;19995;-68
2022/02/28 12:38:35;;;;;;;;;;;29.40;21.00;;;;;;5085427;28;20191;-68
2022/02/28 12:41:06;;;;;;;;;;;30.40;20.30;;;;;;5085282;28;19908;-68
2022/02/28 12:43:32;;;;;;;;;;;29.80;20.10;;;;;;5085486;28;19912;-69
2022/02/28 12:46:00;;;;;;;;;;;29.10;20.00;;;;;;5085384;28;19943;-69
2022/02/28 12:48:27;;;;;;;;;;;30.60;20.40;;;;;;5085154;28;20214;-68
2022/02/28 12:50:55;;;;;;;;;;;32.00;18.80;;;;;;5085022;28;19908;-68
2022/02/28 12:53:23;;;;;;;;;;;30.90;18.80;;;;;;5085340;28;19912;-69
2022/02/28 12:55:58;;;;;;;;;;;30.30;19.00;;;;;;5083338;28;19914;-68
2022/02/28 12:58:26;;;;;;;;;;;31.50;18.20;;;;;;5087853;28;19916;-67
2022/02/28 13:00:52;;;;;;;;;;;30.40;18.50;;;;;;5084463;28;19909;-68
2022/02/28 13:03:18;;;;;;;;;;;29.40;19.40;;;;;;5085145;28;19923;-68
2022/02/28 13:05:59;;;;;;;;;;;30.70;19.10;;;;;;5085166;28;19978;-68
2022/02/28 13:08:24;;;;;;;;;;;30.60;19.20;;;;;;5084996;28;20088;-69
2022/02/28 13:11:09;;;;;;;;;;;30.20;18.90;;;;;;5084297;28;19908;-68
2022/02/28 13:13:36;;;;;;;;;;;31.40;18.50;;;;;;5084896;28;20115;-68
2022/02/28 13:16:02;;;;;;;;;;;31.10;18.50;;;;;;5085009;28;20161;-69
2022/02/28 13:18:31;;;;;;;;;;;31.30;18.40;;;;;;5084751;28;19920;-68
2022/02/28 13:20:56;;;;;;;;;;;31.40;18.30;;;;;;5084382;28;20361;-69
2022/02/28 13:23:22;;;;;;;;;;;30.30;18.50;;;;;;5084510;28;19920;-69
2022/02/28 13:25:57;;;;;;;;;;;29.70;18.70;;;;;;5084474;28;19912;-69
2022/02/28 13:28:36;;;;;;;;;;;29.60;18.60;;;;;;5084102;28;19928;-69
2022/02/28 13:31:03;;;;;;;;;;;30.80;18.50;;;;;;5084424;28;19916;-68
2022/02/28 13:33:30;;;;;;;;;;;30.00;18.90;;;;;;5084556;28;20092;-69
2022/02/28 13:35:55;;;;;;;;;;;30.10;19.20;;;;;;5082701;28;19955;-68
2022/02/28 13:38:21;;;;;;;;;;;31.10;18.60;;;;;;5083286;28;20155;-68
2022/02/28 13:40:47;;;;;;;;;;;30.00;18.70;;;;;;5082298;28;19939;-69
2022/02/28 13:43:14;;;;;;;;;;;29.00;19.30;;;;;;5083081;28;20005;-69
2022/02/28 13:45:41;;;;;;;;;;;28.80;20.10;;;;;;5084349;28;19908;-69
2022/02/28 13:48:23;;;;;;;;;;;29.20;20.10;;;;;;5084038;28;20039;-69
2022/02/28 13:50:54;;;;;;;;;;;29.90;19.40;;;;;;5083986;28;19931;-69
2022/02/28 13:53:20;;;;;;;;;;;29.50;19.60;;;;;;5084203;28;19975;-69
2022/02/28 13:55:47;;;;;;;;;;;29.00;19.60;;;;;;5083936;28;19954;-69
2022/02/28 13:58:13;;;;;;;;;;;28.70;19.20;;;;;;5082883;28;19986;-69
2022/02/28 14:00:52;;;;;;;;;;;28.90;19.40;;;;;;5083549;28;19943;-69
2022/02/28 14:03:24;;;;;;;;;;;29.00;19.30;;;;;;5083931;28;19916;-69
2022/02/28 14:05:54;;;;;;;;;;;31.20;18.60;;;;;;5079962;28;19923;-69
2022/02/28 14:08:24;;;;;;;;;;;28.70;19.30;;;;;;5081803;28;20277;-69
2022/02/28 14:10:50;;;;;;;;;;;27.90;19.90;;;;;;5083715;28;19912;-69
2022/02/28 14:13:20;;;;;;;;;;;28.20;20.20;;;;;;5083966;28;19979;-68
2022/02/28 14:15:51;;;;;;;;;;;28.20;20.00;;;;;;5084333;28;20241;-71
2022/02/28 14:18:18;;;;;;;;;;;28.50;20.00;;;;;;5083936;28;19916;-69
2022/02/28 14:20:44;;;;;;;;;;;29.00;19.90;;;;;;5082544;28;19908;-69